Golden Iris — 3FZK4 — position and weather

sailwx.info

Track history (hours):
 
Tides and Currents Weather Stations Pressure Air Temp Water Temp Dewpoint Dewpoint Depression Visibility Wind Speed Wind Dir Waves Ship Positions

Golden Iris

Last reported at 2014-Nov-06 04:33 UTC. Time now 2014-Nov-27 00:10 UTC.
Position N 38°04' E 024°11'.
Warning: this ship's position is 20 days out of date.

Length 180 m; draft 6 m.

Type: Passenger vessel. MMSI: 371771000.

Date/timePositionNaut miles runAvg speedWind from/ knotsBaromVisibWave heightAir tempDewpointWater temp
2014-Nov-06 04:33N 38°04' E 024°11'1410.8
2014-Nov-06 03:13N 37°51' E 024°19'1811.0
2014-Nov-06 01:33N 37°35' E 024°32'1212.1
2014-Nov-06 00:33N 37°24' E 024°38'1212.0
2014-Nov-05 23:33N 37°14' E 024°44'1212.1
2014-Nov-05 22:33N 37°03' E 024°51'1211.8
2014-Nov-05 21:33N 36°54' E 025°00'1212.3
2014-Nov-05 20:33N 36°50' E 025°15'1212.0
2014-Nov-05 19:33N 36°45' E 025°29'1212.2
2014-Nov-05 18:33N 36°39' E 025°42'1312.2
2014-Nov-05 17:31N 36°33' E 025°56'1313.0
2014-Nov-05 16:31N 36°26' E 026°10'1313.9
2014-Nov-05 15:33N 36°20' E 026°24'1514.0
2014-Nov-05 14:31N 36°13' E 026°40'  
2014-Nov-02 04:33N 32°53' E 034°53'14 0.4
2014-Oct-31 14:31N 32°55' E 034°37'10 9.1
2014-Oct-31 13:24N 32°54' E 034°49'6 0.7
2014-Oct-31 04:28N 32°52' E 034°56'1111.6
2014-Oct-31 03:32N 32°54' E 034°43'46712.0
2014-Oct-29 12:27N 35°12' E 025°45'  
Track history (hours):
 
Tides and Currents Weather Stations Pressure Air Temp Water Temp Dewpoint Dewpoint Depression Visibility Wind Speed Wind Dir Waves Ship Positions

Golden Iris

Last reported at 2014-Nov-06 04:33 UTC. Time now 2014-Nov-27 00:10 UTC.
Position N 38°04' E 024°11'.
Warning: this ship's position is 20 days out of date.

Length 180 m; draft 6 m.

Type: Passenger vessel. MMSI: 371771000.

Date/timePositionNaut miles runAvg speedWind from/ knotsBaromVisibWave heightAir tempDewpointWater temp
2014-Nov-06 04:33N 38°04' E 024°11'1410.8
2014-Nov-06 03:13N 37°51' E 024°19'1811.0
2014-Nov-06 01:33N 37°35' E 024°32'1212.1
2014-Nov-06 00:33N 37°24' E 024°38'1212.0
2014-Nov-05 23:33N 37°14' E 024°44'1212.1
2014-Nov-05 22:33N 37°03' E 024°51'1211.8
2014-Nov-05 21:33N 36°54' E 025°00'1212.3
2014-Nov-05 20:33N 36°50' E 025°15'1212.0
2014-Nov-05 19:33N 36°45' E 025°29'1212.2
2014-Nov-05 18:33N 36°39' E 025°42'1312.2
2014-Nov-05 17:31N 36°33' E 025°56'1313.0
2014-Nov-05 16:31N 36°26' E 026°10'1313.9
2014-Nov-05 15:33N 36°20' E 026°24'1514.0
2014-Nov-05 14:31N 36°13' E 026°40'  
2014-Nov-02 04:33N 32°53' E 034°53'14 0.4
2014-Oct-31 14:31N 32°55' E 034°37'10 9.1
2014-Oct-31 13:24N 32°54' E 034°49'6 0.7
2014-Oct-31 04:28N 32°52' E 034°56'1111.6
2014-Oct-31 03:32N 32°54' E 034°43'46712.0
2014-Oct-29 12:27N 35°12' E 025°45'  

Dump ship's entire track history